createdAt,value
2018-09-12T00:00:26.073Z,0
2018-09-12T00:01:06.602Z,0
2018-09-12T00:01:47.132Z,0
2018-09-12T00:02:27.641Z,0
2018-09-12T00:03:08.175Z,0
2018-09-12T00:03:48.713Z,0
2018-09-12T00:04:29.226Z,0
2018-09-12T00:05:09.745Z,0
2018-09-12T00:05:50.261Z,0
2018-09-12T00:06:30.796Z,0
2018-09-12T00:07:11.315Z,0
2018-09-12T00:07:51.819Z,0
2018-09-12T00:08:32.345Z,0
2018-09-12T00:09:12.863Z,0
2018-09-12T00:09:53.390Z,0
2018-09-12T00:10:33.895Z,0
2018-09-12T00:11:14.438Z,0
2018-09-12T00:11:54.957Z,0
2018-09-12T00:12:35.487Z,0
2018-09-12T00:13:16.007Z,0
2018-09-12T00:13:56.519Z,0
2018-09-12T00:14:37.034Z,0
2018-09-12T00:15:17.590Z,0
2018-09-12T00:15:58.087Z,0
2018-09-12T00:16:38.607Z,0
2018-09-12T00:17:19.136Z,0
2018-09-12T00:17:59.661Z,0
2018-09-12T00:18:40.165Z,0
2018-09-12T00:19:20.691Z,0
2018-09-12T00:20:01.205Z,0
2018-09-12T00:20:41.725Z,0
2018-09-12T00:21:22.238Z,0
2018-09-12T00:22:02.758Z,0
2018-09-12T00:22:43.304Z,0
2018-09-12T00:23:23.792Z,0
2018-09-12T00:24:04.345Z,0
2018-09-12T00:24:44.875Z,0
2018-09-12T00:25:25.567Z,0
2018-09-12T00:26:06.097Z,0
2018-09-12T00:26:46.629Z,0
2018-09-12T00:27:27.179Z,0
2018-09-12T00:28:07.677Z,0
2018-09-12T00:28:48.219Z,0
2018-09-12T00:29:28.777Z,0
2018-09-12T00:30:09.309Z,0
2018-09-12T00:30:49.821Z,0
2018-09-12T00:31:30.353Z,0
2018-09-12T00:32:10.867Z,0
2018-09-12T00:32:51.386Z,0
2018-09-12T00:33:31.903Z,0
2018-09-12T00:34:12.425Z,0
2018-09-12T00:34:52.951Z,0
2018-09-12T00:35:33.471Z,0
2018-09-12T00:37:51.887Z,0
2018-09-12T00:38:32.387Z,0
2018-09-12T00:39:12.913Z,0
2018-09-12T00:39:53.419Z,0
2018-09-12T00:40:33.933Z,0
2018-09-12T00:41:14.434Z,0
2018-09-12T00:41:54.955Z,0
2018-09-12T00:42:35.488Z,0
2018-09-12T00:43:16.016Z,0
2018-09-12T00:43:56.514Z,0
2018-09-12T00:44:37.031Z,0
2018-09-12T00:45:17.544Z,0
2018-09-12T00:45:58.063Z,0
2018-09-12T00:46:38.589Z,0
2018-09-12T00:47:19.112Z,0
2018-09-12T00:47:59.624Z,0
2018-09-12T00:48:40.163Z,0
2018-09-12T00:49:20.668Z,0
2018-09-12T00:50:01.505Z,0
2018-09-12T00:50:42.020Z,0
2018-09-12T00:51:22.540Z,0
2018-09-12T00:52:03.050Z,0
2018-09-12T00:52:43.558Z,0
2018-09-12T00:53:24.078Z,0
2018-09-12T00:54:04.605Z,0
2018-09-12T00:54:45.128Z,0
2018-09-12T00:55:25.650Z,0
2018-09-12T00:56:06.170Z,0
2018-09-12T00:56:47.233Z,0
2018-09-12T00:57:27.190Z,0
2018-09-12T00:58:07.724Z,0
2018-09-12T00:58:48.226Z,0
2018-09-12T00:59:28.936Z,0
2018-09-12T01:00:09.491Z,0
2018-09-12T01:00:50.007Z,0
2018-09-12T01:01:30.525Z,0
2018-09-12T01:02:11.061Z,0
2018-09-12T01:02:51.580Z,0
2018-09-12T01:03:32.078Z,0
2018-09-12T01:04:12.606Z,0
2018-09-12T01:04:53.143Z,0
2018-09-12T01:05:33.654Z,0
2018-09-12T01:06:14.176Z,0
2018-09-12T01:06:54.830Z,0
2018-09-12T01:07:35.353Z,0
2018-09-12T01:08:15.887Z,0
2018-09-12T01:08:56.423Z,0
2018-09-12T01:09:36.943Z,0
2018-09-12T01:10:17.465Z,0
2018-09-12T01:10:57.994Z,0
2018-09-12T01:11:38.509Z,0
2018-09-12T01:12:19.019Z,0
2018-09-12T01:12:59.537Z,0
2018-09-12T01:13:40.061Z,0
2018-09-12T01:14:20.578Z,0
2018-09-12T01:15:01.120Z,0
2018-09-12T01:15:41.668Z,0
2018-09-12T01:16:22.207Z,0
2018-09-12T01:17:02.724Z,0
2018-09-12T01:17:43.225Z,0
2018-09-12T01:18:23.755Z,0
2018-09-12T01:19:04.275Z,0
2018-09-12T01:19:44.787Z,0
2018-09-12T01:20:25.309Z,0
2018-09-12T01:21:05.837Z,0
2018-09-12T01:21:46.342Z,0
2018-09-12T01:22:26.865Z,0
2018-09-12T01:23:07.420Z,0
2018-09-12T01:23:47.927Z,0
2018-09-12T01:24:28.439Z,0
2018-09-12T01:25:08.965Z,0
2018-09-12T01:25:49.481Z,0
2018-09-12T01:26:29.990Z,0
2018-09-12T01:27:10.515Z,0
2018-09-12T01:27:51.046Z,0
2018-09-12T01:28:31.555Z,0
2018-09-12T01:29:12.097Z,0
2018-09-12T01:29:52.666Z,0
2018-09-12T01:30:33.177Z,0
2018-09-12T01:31:13.689Z,0
2018-09-12T01:31:54.217Z,0
2018-09-12T01:32:34.735Z,0
2018-09-12T01:33:15.256Z,0
2018-09-12T01:33:55.776Z,0
2018-09-12T01:34:36.289Z,0
2018-09-12T01:35:16.813Z,0
2018-09-12T01:35:57.325Z,0
2018-09-12T01:36:37.836Z,0
2018-09-12T01:37:18.353Z,0
2018-09-12T01:37:58.878Z,0
2018-09-12T01:38:39.378Z,0
2018-09-12T01:39:19.912Z,0
2018-09-12T01:40:00.417Z,0
2018-09-12T01:40:40.937Z,0
2018-09-12T01:41:21.460Z,0
2018-09-12T01:42:01.983Z,0
2018-09-12T01:42:42.491Z,0
2018-09-12T01:43:23.008Z,0
2018-09-12T01:44:03.524Z,0
2018-09-12T01:44:44.039Z,0
2018-09-12T01:45:24.569Z,0
2018-09-12T01:46:05.094Z,0
2018-09-12T01:46:45.626Z,0
2018-09-12T01:47:26.149Z,0
2018-09-12T01:48:06.667Z,0
2018-09-12T01:48:47.179Z,0
2018-09-12T01:49:27.686Z,0
2018-09-12T01:50:08.214Z,0
2018-09-12T01:50:48.729Z,0
2018-09-12T01:51:29.312Z,0
2018-09-12T01:52:09.848Z,0
2018-09-12T01:52:50.375Z,0
2018-09-12T01:53:30.884Z,0
2018-09-12T01:54:11.397Z,0
2018-09-12T01:54:51.897Z,0
2018-09-12T01:55:32.415Z,0
2018-09-12T01:56:12.942Z,0
2018-09-12T01:56:53.450Z,0
2018-09-12T01:57:33.959Z,0
2018-09-12T01:58:14.492Z,0
2018-09-12T01:58:54.992Z,0
2018-09-12T01:59:35.512Z,0
2018-09-12T02:00:16.040Z,0
2018-09-12T02:00:56.542Z,0
2018-09-12T02:01:37.064Z,0
2018-09-12T02:02:17.584Z,0
2018-09-12T02:02:58.118Z,0
2018-09-12T02:03:38.614Z,0
2018-09-12T02:04:19.118Z,0
2018-09-12T02:04:59.626Z,0
2018-09-12T02:05:40.148Z,0
2018-09-12T02:06:20.656Z,0
2018-09-12T02:07:01.178Z,0
2018-09-12T02:07:41.703Z,0
2018-09-12T02:08:22.237Z,0
2018-09-12T02:09:02.754Z,0
2018-09-12T02:09:43.319Z,0
2018-09-12T02:10:23.847Z,0
2018-09-12T02:11:04.368Z,0
2018-09-12T02:11:45.027Z,0
2018-09-12T02:12:25.550Z,0
2018-09-12T02:13:06.065Z,0
2018-09-12T02:13:46.580Z,0
2018-09-12T02:14:27.093Z,0
2018-09-12T02:15:07.611Z,0
2018-09-12T02:15:48.108Z,0
2018-09-12T02:16:28.626Z,0
2018-09-12T02:17:09.143Z,0
2018-09-12T02:17:49.663Z,0
2018-09-12T02:18:30.177Z,0
2018-09-12T02:19:10.689Z,0
2018-09-12T02:19:51.221Z,0
2018-09-12T02:20:31.788Z,0
2018-09-12T02:21:12.288Z,0
2018-09-12T02:21:52.812Z,0
2018-09-12T02:22:33.333Z,0
2018-09-12T02:23:13.855Z,0
2018-09-12T02:23:54.367Z,0
2018-09-12T02:24:34.906Z,0
2018-09-12T02:25:15.431Z,0
2018-09-12T02:25:55.950Z,0
2018-09-12T02:26:36.468Z,0
2018-09-12T02:27:16.988Z,0
2018-09-12T02:27:57.519Z,0
2018-09-12T02:28:38.085Z,0
2018-09-12T02:29:18.598Z,0
2018-09-12T02:29:59.125Z,0
2018-09-12T02:30:39.642Z,0
2018-09-12T02:31:20.166Z,0
2018-09-12T02:32:00.691Z,0
2018-09-12T02:32:41.186Z,0
2018-09-12T02:33:21.722Z,0
2018-09-12T02:34:02.256Z,0
2018-09-12T02:34:42.748Z,0
2018-09-12T02:35:23.275Z,0
2018-09-12T02:36:03.805Z,0
2018-09-12T02:36:44.343Z,0
2018-09-12T02:37:24.840Z,0
2018-09-12T02:38:05.381Z,0
2018-09-12T02:38:45.891Z,0
2018-09-12T02:39:26.401Z,0
2018-09-12T02:40:06.931Z,0
2018-09-12T02:40:47.455Z,0
2018-09-12T02:41:28.081Z,0
2018-09-12T02:42:08.602Z,0
2018-09-12T02:42:49.129Z,0
2018-09-12T02:43:29.652Z,0
2018-09-12T02:44:10.168Z,0
2018-09-12T02:44:50.708Z,0
2018-09-12T02:45:31.198Z,0
2018-09-12T02:46:11.726Z,0
2018-09-12T02:46:52.248Z,0
2018-09-12T02:47:32.772Z,0
2018-09-12T02:48:13.279Z,0
2018-09-12T02:48:53.794Z,0
2018-09-12T02:49:34.324Z,0
2018-09-12T02:50:14.842Z,0
2018-09-12T02:50:55.349Z,0
2018-09-12T02:51:35.877Z,0
2018-09-12T02:52:16.388Z,0
2018-09-12T02:52:56.913Z,0
2018-09-12T02:53:37.460Z,0
2018-09-12T02:54:17.979Z,0
2018-09-12T02:54:58.493Z,0
2018-09-12T02:55:38.997Z,0
2018-09-12T02:56:19.512Z,0
2018-09-12T02:57:00.031Z,0
2018-09-12T02:57:40.544Z,0
2018-09-12T02:58:21.058Z,0
2018-09-12T02:59:01.563Z,0
2018-09-12T02:59:42.085Z,0
2018-09-12T03:00:22.598Z,0
2018-09-12T03:01:03.117Z,0
2018-09-12T03:01:43.720Z,0
2018-09-12T03:02:24.219Z,0
2018-09-12T03:03:04.731Z,0
2018-09-12T03:03:45.259Z,0
2018-09-12T03:04:25.770Z,0
2018-09-12T03:05:06.290Z,0
2018-09-12T03:05:46.860Z,0
2018-09-12T03:06:27.385Z,0
2018-09-12T03:07:07.895Z,0
2018-09-12T03:07:48.453Z,0
2018-09-12T03:08:29.134Z,0
2018-09-12T03:09:09.552Z,0
2018-09-12T03:09:50.067Z,0
2018-09-12T03:10:30.587Z,0
2018-09-12T03:11:11.101Z,0
2018-09-12T03:11:51.617Z,0
2018-09-12T03:12:32.142Z,0
2018-09-12T03:13:12.671Z,0
2018-09-12T03:13:53.198Z,0
2018-09-12T03:14:33.714Z,0
2018-09-12T03:15:14.255Z,0
2018-09-12T03:15:54.779Z,0
2018-09-12T03:16:35.280Z,0
2018-09-12T03:17:15.799Z,0
2018-09-12T03:17:56.303Z,0
2018-09-12T03:18:36.814Z,0
2018-09-12T03:19:17.333Z,0
2018-09-12T03:19:57.855Z,0
2018-09-12T03:20:38.417Z,0
2018-09-12T03:21:18.892Z,0
2018-09-12T03:21:59.419Z,0
2018-09-12T03:22:40.002Z,0
2018-09-12T03:23:20.525Z,0
2018-09-12T03:24:01.053Z,0
2018-09-12T03:24:41.569Z,0
2018-09-12T03:25:22.085Z,0
2018-09-12T03:26:02.626Z,0
2018-09-12T03:26:43.162Z,0
2018-09-12T03:27:23.786Z,0
2018-09-12T03:28:04.309Z,0
2018-09-12T03:28:44.832Z,0
2018-09-12T03:29:25.358Z,0
2018-09-12T03:30:05.859Z,0
2018-09-12T03:30:46.404Z,0
2018-09-12T03:31:27.062Z,0
2018-09-12T03:32:07.617Z,0
2018-09-12T03:32:48.153Z,0
2018-09-12T03:33:29.039Z,0
2018-09-12T03:34:09.560Z,0
2018-09-12T03:34:50.087Z,0
2018-09-12T03:35:30.598Z,0
2018-09-12T03:36:11.130Z,0
2018-09-12T03:36:51.644Z,0
2018-09-12T03:37:32.163Z,0
2018-09-12T03:38:12.697Z,0
2018-09-12T03:38:53.215Z,0
2018-09-12T03:39:33.755Z,0
2018-09-12T03:40:14.274Z,0
2018-09-12T03:40:54.789Z,0
2018-09-12T03:41:35.303Z,0
2018-09-12T03:42:15.797Z,0
2018-09-12T03:42:56.321Z,0
2018-09-12T03:43:36.836Z,0
2018-09-12T03:44:17.372Z,0
2018-09-12T03:44:57.895Z,0
2018-09-12T03:45:38.433Z,0
2018-09-12T03:46:18.950Z,0
2018-09-12T03:46:59.472Z,0
2018-09-12T03:47:40.000Z,0
2018-09-12T03:48:20.528Z,0
2018-09-12T03:49:01.047Z,0
2018-09-12T03:49:41.545Z,0
2018-09-12T03:50:22.465Z,0
2018-09-12T03:51:02.930Z,0
2018-09-12T03:51:43.429Z,0
2018-09-12T03:52:23.951Z,0
2018-09-12T03:53:04.479Z,0
2018-09-12T03:53:45.017Z,0
2018-09-12T03:54:25.528Z,0
2018-09-12T03:55:06.059Z,0
2018-09-12T03:55:46.579Z,0
2018-09-12T03:56:27.094Z,0
2018-09-12T03:57:07.630Z,0
2018-09-12T03:57:48.142Z,0
2018-09-12T03:58:28.671Z,0
2018-09-12T03:59:09.188Z,0
2018-09-12T03:59:49.703Z,0
2018-09-12T04:00:30.239Z,0
2018-09-12T04:01:10.769Z,0
2018-09-12T04:01:51.290Z,0
2018-09-12T04:02:31.797Z,0
2018-09-12T04:03:12.341Z,0
2018-09-12T04:03:52.864Z,0
2018-09-12T04:04:33.401Z,0
2018-09-12T04:05:13.922Z,0
2018-09-12T04:05:54.497Z,0
2018-09-12T04:06:35.008Z,0
2018-09-12T04:07:15.534Z,0
2018-09-12T04:07:56.187Z,0
2018-09-12T04:08:36.698Z,0
2018-09-12T04:09:17.213Z,0
2018-09-12T04:09:57.738Z,0
2018-09-12T04:10:38.281Z,0
2018-09-12T04:11:18.801Z,0
2018-09-12T04:11:59.311Z,0
2018-09-12T04:12:39.846Z,0
2018-09-12T04:13:20.367Z,0
2018-09-12T04:14:00.894Z,0
2018-09-12T04:14:41.401Z,0
2018-09-12T04:15:21.921Z,0
2018-09-12T04:16:02.424Z,0
2018-09-12T04:16:42.999Z,0
2018-09-12T04:17:23.473Z,0
2018-09-12T04:18:03.997Z,0
2018-09-12T04:18:44.565Z,0
2018-09-12T04:19:25.025Z,0
2018-09-12T04:20:05.577Z,0
2018-09-12T04:20:46.128Z,0
2018-09-12T04:21:26.673Z,0
2018-09-12T04:22:07.171Z,0
2018-09-12T04:22:47.664Z,0
2018-09-12T04:23:28.181Z,0
2018-09-12T04:24:08.723Z,0
2018-09-12T04:24:49.255Z,0
2018-09-12T04:25:29.772Z,0
2018-09-12T04:26:10.292Z,0
2018-09-12T04:26:50.801Z,4
2018-09-12T04:27:31.351Z,4
2018-09-12T04:28:11.857Z,0
2018-09-12T04:28:52.380Z,0
2018-09-12T04:29:32.888Z,0
2018-09-12T04:30:13.412Z,4
2018-09-12T04:30:53.928Z,4
2018-09-12T04:31:34.451Z,0
2018-09-12T04:32:14.979Z,4
2018-09-12T04:32:55.501Z,4
2018-09-12T04:33:36.022Z,4
2018-09-12T04:34:16.539Z,8
2018-09-12T04:34:57.073Z,4
2018-09-12T04:35:37.589Z,8
2018-09-12T04:36:18.106Z,4
2018-09-12T04:36:58.685Z,8
2018-09-12T04:37:39.204Z,8
2018-09-12T04:38:19.725Z,12
2018-09-12T04:39:00.256Z,12
2018-09-12T04:39:40.783Z,16
2018-09-12T04:40:21.292Z,16
2018-09-12T04:41:01.824Z,20
2018-09-12T04:41:42.337Z,24
2018-09-12T04:42:22.851Z,24
2018-09-12T04:43:03.380Z,28
2018-09-12T04:43:43.890Z,32
2018-09-12T04:44:24.401Z,32
2018-09-12T04:45:04.928Z,40
2018-09-12T04:45:45.433Z,40
2018-09-12T04:46:25.956Z,48
2018-09-12T04:47:06.481Z,52
2018-09-12T04:47:47.004Z,56
2018-09-12T04:48:27.587Z,64
2018-09-12T04:49:08.025Z,68
2018-09-12T04:49:48.551Z,76
2018-09-12T04:50:29.058Z,80
2018-09-12T04:51:09.592Z,88
2018-09-12T04:51:50.123Z,92
2018-09-12T04:52:30.661Z,104
2018-09-12T04:53:11.162Z,108
2018-09-12T04:53:51.671Z,120
2018-09-12T04:54:32.207Z,128
2018-09-12T04:55:12.724Z,136
2018-09-12T04:55:53.253Z,144
2018-09-12T04:56:33.796Z,156
2018-09-12T04:57:14.302Z,164
2018-09-12T04:57:54.831Z,176
2018-09-12T04:58:35.458Z,188
2018-09-12T04:59:15.979Z,200
2018-09-12T04:59:56.487Z,208
2018-09-12T05:00:37.009Z,224
2018-09-12T05:01:17.538Z,232
2018-09-12T05:01:58.060Z,248
2018-09-12T05:02:38.564Z,260
2018-09-12T05:03:19.081Z,272
2018-09-12T05:03:59.646Z,288
2018-09-12T05:04:40.166Z,304
2018-09-12T05:05:20.699Z,320
2018-09-12T05:06:01.217Z,332
2018-09-12T05:06:41.772Z,352
2018-09-12T05:07:22.267Z,368
2018-09-12T05:08:02.780Z,388
2018-09-12T05:08:43.297Z,404
2018-09-12T05:09:23.818Z,420
2018-09-12T05:10:04.418Z,440
2018-09-12T05:10:45.006Z,460
2018-09-12T05:11:25.537Z,480
2018-09-12T05:12:06.060Z,496
2018-09-12T05:12:46.592Z,516
2018-09-12T05:13:27.132Z,540
2018-09-12T05:14:07.642Z,560
2018-09-12T05:14:48.163Z,580
2018-09-12T05:15:28.693Z,600
2018-09-12T05:16:09.197Z,620
2018-09-12T05:16:49.721Z,636
2018-09-12T05:17:30.242Z,656
2018-09-12T05:18:10.741Z,680
2018-09-12T05:18:51.270Z,692
2018-09-12T05:19:31.772Z,712
2018-09-12T05:20:12.314Z,732
2018-09-12T05:20:52.801Z,748
2018-09-12T05:21:33.324Z,764
2018-09-12T05:22:13.890Z,784
2018-09-12T05:22:54.372Z,808
2018-09-12T05:23:34.936Z,828
2018-09-12T05:24:15.405Z,848
2018-09-12T05:24:55.947Z,872
2018-09-12T05:25:36.453Z,892
2018-09-12T05:26:16.982Z,908
2018-09-12T05:26:57.508Z,932
2018-09-12T05:27:38.036Z,948
2018-09-12T05:28:18.551Z,964
2018-09-12T05:28:59.076Z,984
2018-09-12T05:29:39.609Z,996
2018-09-12T05:30:20.115Z,1008
2018-09-12T05:31:00.634Z,1024
2018-09-12T05:31:41.134Z,1036
2018-09-12T05:32:21.663Z,1048
2018-09-12T05:33:02.209Z,1056
2018-09-12T05:33:42.729Z,1068
2018-09-12T05:34:23.266Z,1076
2018-09-12T05:35:03.795Z,1088
2018-09-12T05:35:44.303Z,1096
2018-09-12T05:36:24.876Z,1104
2018-09-12T05:37:05.418Z,1112
2018-09-12T05:37:45.923Z,1120
2018-09-12T05:38:26.445Z,1128
2018-09-12T05:39:06.953Z,1136
2018-09-12T05:39:47.489Z,1140
2018-09-12T05:40:28.067Z,1144
2018-09-12T05:41:08.595Z,1152
2018-09-12T05:41:49.126Z,1160
2018-09-12T05:42:29.640Z,1184
2018-09-12T05:43:10.155Z,1208
2018-09-12T05:43:50.654Z,1224
2018-09-12T05:44:31.238Z,1240
2018-09-12T05:45:11.760Z,1252
2018-09-12T05:45:52.282Z,1268
2018-09-12T05:46:32.854Z,1280
2018-09-12T05:47:13.368Z,1300
2018-09-12T05:47:53.922Z,1316
2018-09-12T05:48:34.443Z,1332
2018-09-12T05:49:14.950Z,1344
2018-09-12T05:49:55.468Z,1360
2018-09-12T05:50:36.043Z,1368
2018-09-12T05:51:16.588Z,1380
2018-09-12T05:51:57.091Z,1392
2018-09-12T05:52:37.598Z,1400
2018-09-12T05:53:18.123Z,1412
2018-09-12T05:53:58.643Z,1424
2018-09-12T05:54:39.154Z,1432
2018-09-12T05:55:19.897Z,1440
2018-09-12T05:56:00.414Z,1448
2018-09-12T05:56:40.927Z,1460
2018-09-12T05:57:21.444Z,1472
2018-09-12T05:58:01.955Z,1480
2018-09-12T05:58:42.464Z,1488
2018-09-12T05:59:23.004Z,1500
2018-09-12T06:00:03.523Z,1508
2018-09-12T06:00:44.068Z,1516
2018-09-12T06:01:24.597Z,1524
2018-09-12T06:02:05.113Z,1536
2018-09-12T06:02:45.622Z,1544
2018-09-12T06:03:26.151Z,1548
2018-09-12T06:04:06.689Z,1560
2018-09-12T06:04:47.163Z,1564
2018-09-12T06:05:27.732Z,1572
2018-09-12T06:06:08.309Z,1580
2018-09-12T06:06:48.910Z,1588
2018-09-12T06:07:29.360Z,1596
2018-09-12T06:08:09.876Z,1604
2018-09-12T06:08:50.406Z,1612
2018-09-12T06:09:30.964Z,1620
2018-09-12T06:10:11.601Z,1632
2018-09-12T06:10:52.003Z,1648
2018-09-12T06:11:32.525Z,1672
2018-09-12T06:12:13.046Z,1688
2018-09-12T06:12:53.591Z,1716
2018-09-12T06:13:34.141Z,1748
2018-09-12T06:14:14.716Z,1776
2018-09-12T06:14:55.166Z,1788
2018-09-12T06:15:35.701Z,1800
2018-09-12T06:16:16.228Z,1812
2018-09-12T06:16:56.780Z,1820
2018-09-12T06:17:37.321Z,1832
2018-09-12T06:18:17.813Z,1844
2018-09-12T06:18:58.330Z,1852
2018-09-12T06:19:38.866Z,1848
2018-09-12T06:20:19.412Z,1832
2018-09-12T06:20:59.951Z,1820
2018-09-12T06:21:40.574Z,1812
2018-09-12T06:22:21.085Z,1820
2018-09-12T06:23:01.592Z,1832
2018-09-12T06:23:42.091Z,1852
2018-09-12T06:24:22.593Z,1860
2018-09-12T06:25:03.128Z,1860
2018-09-12T06:25:43.614Z,1864
2018-09-12T06:26:24.137Z,1868
2018-09-12T06:27:04.676Z,1872
2018-09-12T06:27:45.210Z,1872
2018-09-12T06:28:25.718Z,1868
2018-09-12T06:29:06.236Z,1864
2018-09-12T06:29:46.747Z,1864
2018-09-12T06:30:27.281Z,1864
2018-09-12T06:31:07.773Z,1864
2018-09-12T06:31:48.310Z,1864
2018-09-12T06:32:28.840Z,1864
2018-09-12T06:33:09.386Z,1864
2018-09-12T06:33:49.885Z,1868
2018-09-12T06:34:30.413Z,1864
2018-09-12T06:35:10.943Z,1872
2018-09-12T06:35:51.480Z,1872
2018-09-12T06:36:32.003Z,1876
2018-09-12T06:37:12.544Z,1884
2018-09-12T06:37:53.092Z,1892
2018-09-12T06:38:33.660Z,1900
2018-09-12T06:39:14.141Z,1908
2018-09-12T06:39:54.635Z,1916
2018-09-12T06:40:35.145Z,1920
2018-09-12T06:41:15.672Z,1924
2018-09-12T06:41:56.211Z,1928
2018-09-12T06:42:36.741Z,1932
2018-09-12T06:43:17.259Z,1932
2018-09-12T06:43:57.858Z,1932
2018-09-12T06:44:38.442Z,1940
2018-09-12T06:45:18.915Z,1940
2018-09-12T06:45:59.445Z,1952
2018-09-12T06:46:39.966Z,1956
2018-09-12T06:47:20.464Z,1960
2018-09-12T06:48:00.982Z,1968
2018-09-12T06:48:41.489Z,1984
2018-09-12T06:49:21.992Z,1996
2018-09-12T06:50:02.519Z,2008
2018-09-12T06:50:43.029Z,2028
2018-09-12T06:51:23.553Z,2056
2018-09-12T06:52:04.008Z,2080
2018-09-12T06:52:44.560Z,2092
2018-09-12T06:53:25.065Z,2088
2018-09-12T06:54:05.630Z,2084
2018-09-12T06:54:46.218Z,2076
2018-09-12T06:55:26.656Z,2064
2018-09-12T06:56:07.142Z,2056
2018-09-12T06:56:47.654Z,2056
2018-09-12T06:57:28.217Z,2056
2018-09-12T06:58:08.732Z,2056
2018-09-12T06:58:49.231Z,2064
2018-09-12T06:59:29.765Z,2136
2018-09-12T07:00:10.281Z,2328
2018-09-12T07:00:50.838Z,2664
2018-09-12T07:01:31.332Z,3000
2018-09-12T07:02:11.976Z,3316
2018-09-12T07:02:52.388Z,3568
2018-09-12T07:03:32.939Z,3728
2018-09-12T07:04:13.443Z,3804
2018-09-12T07:04:53.961Z,3832
2018-09-12T07:05:34.482Z,3836
2018-09-12T07:06:15.017Z,3844
2018-09-12T07:06:55.483Z,3832
2018-09-12T07:07:36.153Z,3824
2018-09-12T07:08:16.536Z,3824
2018-09-12T07:08:57.036Z,3824
2018-09-12T07:09:37.525Z,3820
2018-09-12T07:10:18.054Z,3832
2018-09-12T07:10:58.527Z,3832
2018-09-12T07:11:39.035Z,3836
2018-09-12T07:12:19.600Z,3828
2018-09-12T07:13:00.137Z,3816
2018-09-12T07:13:40.741Z,3792
2018-09-12T07:14:21.197Z,3772
2018-09-12T07:15:01.602Z,3744
2018-09-12T07:17:30.244Z,3672
2018-09-12T07:18:10.771Z,3648
2018-09-12T07:18:51.287Z,3636
2018-09-12T07:19:31.972Z,3612
2018-09-12T07:20:12.459Z,3584
2018-09-12T07:20:52.979Z,3576
2018-09-12T07:21:33.482Z,3560
2018-09-12T07:22:13.978Z,3544
2018-09-12T07:22:54.451Z,3532
2018-09-12T07:23:34.947Z,3520
2018-09-12T07:24:15.517Z,3500
2018-09-12T07:24:55.921Z,3484
2018-09-12T07:25:36.465Z,3472
2018-09-12T07:26:16.954Z,3452
2018-09-12T07:26:57.425Z,3444
2018-09-12T07:27:37.983Z,3440
2018-09-12T07:28:18.376Z,3432
2018-09-12T07:28:58.915Z,3420
2018-09-12T07:29:39.402Z,3420
2018-09-12T07:30:19.983Z,3408
2018-09-12T07:31:00.401Z,3384
2018-09-12T07:31:40.904Z,3344
2018-09-12T07:32:21.470Z,3304
2018-09-12T07:33:02.330Z,3252
2018-09-12T07:33:42.773Z,3196
2018-09-12T07:34:23.254Z,3144
2018-09-12T07:35:03.766Z,3104
2018-09-12T07:35:44.961Z,3064
2018-09-12T07:36:25.655Z,3020
2018-09-12T07:37:06.148Z,2964
2018-09-12T07:37:46.648Z,2896
2018-09-12T07:38:27.241Z,2832
2018-09-12T07:39:07.739Z,2784
2018-09-12T07:39:48.255Z,2756
2018-09-12T07:40:28.743Z,2740
2018-09-12T07:41:09.198Z,2732
2018-09-12T07:41:49.684Z,2728
2018-09-12T07:42:30.169Z,2716
2018-09-12T07:43:10.672Z,2700
2018-09-12T07:43:51.220Z,2692
2018-09-12T07:44:31.715Z,2676
2018-09-12T07:45:12.238Z,2660
2018-09-12T07:45:53.043Z,2648
2018-09-12T07:46:33.598Z,2632
2018-09-12T07:47:14.040Z,2612
2018-09-12T07:47:54.537Z,2600
2018-09-12T07:48:35.052Z,2576
2018-09-12T07:49:15.463Z,2556
2018-09-12T07:49:55.955Z,2536
2018-09-12T07:50:36.496Z,2520
2018-09-12T07:51:16.984Z,2496
2018-09-12T07:51:57.475Z,2476
2018-09-12T07:52:38.022Z,2456
2018-09-12T07:53:18.535Z,2440
2018-09-12T07:53:59.085Z,2416
2018-09-12T07:54:39.522Z,2400
2018-09-12T07:55:20.135Z,2388
2018-09-12T07:56:00.489Z,2380
2018-09-12T07:56:41.199Z,2368
2018-09-12T07:57:21.564Z,2368
2018-09-12T07:58:02.045Z,2360
2018-09-12T07:58:42.541Z,2352
2018-09-12T07:59:23.119Z,2348
2018-09-12T08:00:03.625Z,2340
2018-09-12T08:00:44.152Z,2336
2018-09-12T08:01:24.598Z,2336
2018-09-12T08:02:05.090Z,2332
2018-09-12T08:02:45.599Z,2328
2018-09-12T08:03:26.094Z,2324
2018-09-12T08:04:07.513Z,2320
2018-09-12T08:04:48.042Z,2316
2018-09-12T08:05:28.572Z,2312
2018-09-12T08:06:09.052Z,2308
2018-09-12T08:06:49.659Z,2304
2018-09-12T08:07:30.194Z,2296
2018-09-12T08:08:10.675Z,2296
2018-09-12T08:08:51.234Z,2296
2018-09-12T08:09:31.698Z,2296
2018-09-12T08:10:12.213Z,2284
2018-09-12T08:10:52.749Z,2288
2018-09-12T08:11:33.231Z,2284
2018-09-12T08:12:13.819Z,2288
2018-09-12T08:12:54.247Z,2284
2018-09-12T08:13:34.748Z,2276
2018-09-12T08:14:15.267Z,2280
2018-09-12T08:14:55.770Z,2280
2018-09-12T08:15:36.348Z,2280
2018-09-12T08:16:16.897Z,2280
2018-09-12T08:16:57.410Z,2280
2018-09-12T08:17:37.889Z,2284
2018-09-12T08:18:18.362Z,2280
2018-09-12T08:18:58.880Z,2280
2018-09-12T08:19:39.395Z,2284
2018-09-12T08:20:20.030Z,2280
2018-09-12T08:21:00.543Z,2284
2018-09-12T08:21:41.073Z,2284
2018-09-12T08:22:21.592Z,2284
2018-09-12T08:23:02.088Z,2288
2018-09-12T08:23:42.612Z,2284
2018-09-12T08:24:23.137Z,2288
2018-09-12T08:25:03.648Z,2292
2018-09-12T08:25:44.206Z,2292
2018-09-12T08:26:24.685Z,2292
2018-09-12T08:27:05.191Z,2300
2018-09-12T08:27:45.724Z,2296
2018-09-12T08:28:26.227Z,2296
2018-09-12T08:29:06.719Z,2296
2018-09-12T08:29:47.214Z,2292
2018-09-12T08:30:27.692Z,2292
2018-09-12T08:31:08.187Z,2288
2018-09-12T08:31:48.739Z,2284
2018-09-12T08:32:29.245Z,2280
2018-09-12T08:33:09.827Z,2284
2018-09-12T08:33:50.322Z,2280
2018-09-12T08:34:30.817Z,2276
2018-09-12T08:35:11.308Z,2268
2018-09-12T08:35:51.792Z,2272
2018-09-12T08:36:32.367Z,2272
2018-09-12T08:37:12.856Z,2272
2018-09-12T08:37:53.355Z,2272
2018-09-12T08:40:11.849Z,2272
2018-09-12T08:40:52.423Z,2268
2018-09-12T08:41:32.938Z,2268
2018-09-12T08:42:13.553Z,2264
2018-09-12T08:42:53.963Z,2264
2018-09-12T08:43:34.453Z,2252
2018-09-12T08:44:14.956Z,2244
2018-09-12T08:44:55.461Z,2232
2018-09-12T08:45:36.003Z,2216
2018-09-12T08:46:16.492Z,2204
2018-09-12T08:46:57.003Z,2184
2018-09-12T08:47:37.735Z,2172
2018-09-12T08:48:18.758Z,2160
2018-09-12T08:48:59.247Z,2144
2018-09-12T08:49:39.739Z,2136
2018-09-12T08:50:20.270Z,2128
2018-09-12T08:51:00.792Z,2124
2018-09-12T08:51:41.287Z,2116
2018-09-12T08:52:21.785Z,2108
2018-09-12T08:53:02.322Z,2100
2018-09-12T08:53:43.005Z,2092
2018-09-12T08:54:23.518Z,2084
2018-09-12T08:55:04.019Z,2076
2018-09-12T08:55:44.603Z,2068
2018-09-12T08:56:25.116Z,2064
2018-09-12T08:57:05.533Z,2056
2018-09-12T08:57:46.061Z,2056
2018-09-12T08:58:26.543Z,2056
2018-09-12T08:59:07.031Z,2052
2018-09-12T08:59:47.569Z,2048
2018-09-12T09:00:28.177Z,2044
2018-09-12T09:01:08.601Z,2044
2018-09-12T09:01:49.074Z,2044
2018-09-12T09:02:29.603Z,2040
2018-09-12T09:03:10.121Z,2044
2018-09-12T09:03:50.640Z,2040
2018-09-12T09:04:31.254Z,2040
2018-09-12T09:05:11.764Z,2036
2018-09-12T09:05:52.266Z,2044
2018-09-12T09:06:32.762Z,2040
2018-09-12T09:07:13.247Z,2040
2018-09-12T09:07:53.868Z,2044
2018-09-12T09:08:34.368Z,2040
2018-09-12T09:09:14.860Z,2036
2018-09-12T09:09:55.385Z,2032
2018-09-12T09:10:35.953Z,2024
2018-09-12T09:11:16.366Z,2020
2018-09-12T09:11:56.876Z,2020
2018-09-12T09:12:37.385Z,2012
2018-09-12T09:13:17.919Z,2004
2018-09-12T09:13:58.362Z,2000
2018-09-12T09:14:38.888Z,1988
2018-09-12T09:15:19.358Z,1984
2018-09-12T09:15:59.924Z,1980
2018-09-12T09:16:40.421Z,1976
2018-09-12T09:17:21.027Z,1972
2018-09-12T09:18:01.386Z,1972
2018-09-12T09:18:41.899Z,1976
2018-09-12T09:19:22.434Z,1964
2018-09-12T09:20:02.961Z,1964
2018-09-12T09:20:43.493Z,1964
2018-09-12T09:21:24.071Z,1968
2018-09-12T09:22:04.559Z,1960
2018-09-12T09:22:45.179Z,1964
2018-09-12T09:23:25.670Z,1964
2018-09-12T09:24:06.480Z,1964
2018-09-12T09:24:47.042Z,1960
2018-09-12T09:25:27.531Z,1972
2018-09-12T09:26:08.163Z,1972
2018-09-12T09:26:48.689Z,1968
2018-09-12T09:27:29.172Z,1980
2018-09-12T09:28:09.713Z,1968
2018-09-12T09:28:50.399Z,1976
2018-09-12T09:29:31.190Z,1976
2018-09-12T09:30:11.626Z,1976
2018-09-12T09:30:52.117Z,1988
2018-09-12T09:31:32.674Z,1976
2018-09-12T09:32:13.187Z,1976
2018-09-12T09:32:53.701Z,1980
2018-09-12T09:33:34.234Z,1984
2018-09-12T09:34:14.755Z,1976